Time;durP1;ratioP1;P1;durP2;ratioP2;P2;SDS_P1;SDS_P2;PMS_P1;PMS_P2;Temp;Humidity;BMP_temperature;BMP_pressure;BME280_temperature;BME280_humidity;BME280_pressure;Samples;Min_cycle;Max_cycle;Signal;HPM_P1;HPM_P2
2022/05/11 00:01:57;;;;;;;5.53;3.08;;;332.90;2329.60;;;;;;5042117;28;20017;-53
2022/05/11 00:04:23;;;;;;;6.53;3.90;;;308.00;2304.00;;;;;;5040398;28;20017;-53
2022/05/11 00:06:49;;;;;;;4.90;2.83;;;307.80;2304.00;;;;;;5051335;28;20039;-54
2022/05/11 00:09:16;;;;;;;4.38;2.38;;;307.70;2304.00;;;;;;5050714;28;20037;-53
2022/05/11 00:11:43;;;;;;;6.53;3.10;;;307.60;2304.00;;;;;;5051643;28;20024;-54
2022/05/11 00:14:09;;;;;;;3.90;2.88;;;307.60;2304.00;;;;;;5051853;28;20021;-54
2022/05/11 00:16:35;;;;;;;3.78;2.05;;;307.60;2304.00;;;;;;5051532;28;20025;-54
2022/05/11 00:19:01;;;;;;;3.80;2.60;;;307.60;2304.00;;;;;;5051228;28;20025;-53
2022/05/11 00:21:27;;;;;;;3.88;2.28;;;307.70;2304.00;;;;;;5051738;28;20020;-54
2022/05/11 00:23:53;;;;;;;5.53;2.50;;;307.80;2304.00;;;;;;5051192;28;20029;-54
2022/05/11 00:26:20;;;;;;;3.67;2.20;;;307.90;2304.00;;;;;;5051008;28;20078;-55
2022/05/11 00:28:46;;;;;;;4.93;2.80;;;308.00;2304.00;;;;;;5051272;28;20100;-54
2022/05/11 00:31:12;;;;;;;3.80;2.10;;;308.10;2304.00;;;;;;5050895;28;20025;-55
2022/05/11 00:33:38;;;;;;;4.93;3.08;;;308.10;2304.00;;;;;;5051277;28;20086;-54
2022/05/11 00:36:12;;;;;;;4.32;2.30;;;308.10;2304.00;;;;;;5051015;28;20022;-54
2022/05/11 00:38:39;;;;;;;5.18;2.70;;;308.00;2304.00;;;;;;5050972;28;20063;-54
2022/05/11 00:41:06;;;;;;;5.60;3.15;;;307.90;2304.00;;;;;;5050990;28;20490;-54
2022/05/11 00:43:37;;;;;;;4.72;3.13;;;307.80;2304.00;;;;;;5050693;28;20128;-54
2022/05/11 00:46:11;;;;;;;3.58;2.30;;;307.70;2304.00;;;;;;5050638;28;20025;-53
2022/05/11 00:51:23;;;;;;;4.97;2.88;;;307.60;2304.00;;;;;;5050895;28;20110;-54
2022/05/11 00:53:52;;;;;;;5.32;3.25;;;307.60;2304.00;;;;;;5051027;28;20033;-54
2022/05/11 00:56:18;;;;;;;4.95;2.95;;;307.50;2304.00;;;;;;5051004;28;20102;-53
2022/05/11 00:58:52;;;;;;;4.70;2.65;;;307.50;2304.00;;;;;;5050814;28;20462;-54
2022/05/11 01:01:18;;;;;;;4.93;2.65;;;307.60;2304.00;;;;;;5050723;28;20025;-53
2022/05/11 01:04:10;;;;;;;3.63;2.67;;;307.60;2304.00;;;;;;5050310;28;20086;-54
2022/05/11 01:06:37;;;;;;;3.67;2.42;;;307.60;2304.00;;;;;;5050480;28;20029;-53
2022/05/11 01:09:05;;;;;;;3.42;2.88;;;307.60;2304.00;;;;;;5050344;28;20072;-54
2022/05/11 01:11:32;;;;;;;4.72;2.63;;;307.60;2304.00;;;;;;5050353;28;20017;-54
2022/05/11 01:13:58;;;;;;;5.45;2.80;;;307.60;2304.00;;;;;;5050349;28;20463;-54
2022/05/11 01:16:27;;;;;;;4.40;2.70;;;307.60;2304.00;;;;;;5050650;28;20100;-56
2022/05/11 01:18:53;;;;;;;4.53;2.83;;;307.60;2304.00;;;;;;5049730;28;20078;-54
2022/05/11 01:21:18;;;;;;;5.32;3.20;;;307.60;2304.00;;;;;;5050594;28;20087;-55
2022/05/11 01:24:00;;;;;;;5.07;2.92;;;307.60;2304.00;;;;;;5050187;28;20033;-54
2022/05/11 01:26:26;;;;;;;5.53;2.72;;;307.50;2304.00;;;;;;5050215;28;20482;-55
2022/05/11 01:28:54;;;;;;;4.47;3.10;;;307.40;2304.00;;;;;;5050186;28;20033;-54
2022/05/11 01:31:21;;;;;;;8.60;2.60;;;307.50;2304.00;;;;;;5049974;28;20386;-54
2022/05/11 01:33:50;;;;;;;4.80;2.78;;;307.50;2304.00;;;;;;5050263;28;20029;-54
2022/05/11 01:36:31;;;;;;;5.75;2.95;;;307.40;2304.00;;;;;;5050105;28;20036;-55
2022/05/11 01:39:02;;;;;;;4.93;2.55;;;307.30;2304.00;;;;;;5050145;28;20513;-54
2022/05/11 01:41:42;;;;;;;5.60;3.55;;;307.30;2304.00;;;;;;5049970;28;20398;-55
2022/05/11 01:44:13;;;;;;;4.57;2.38;;;307.30;2304.00;;;;;;5050014;28;20033;-54
2022/05/11 01:46:43;;;;;;;6.00;2.88;;;307.40;2304.00;;;;;;5050345;28;20108;-54
2022/05/11 01:49:09;;;;;;;5.32;2.72;;;307.60;2304.00;;;;;;5050327;28;20108;-55
2022/05/11 01:51:34;;;;;;;3.58;2.35;;;307.60;2304.00;;;;;;5050148;28;20474;-56
2022/05/11 01:54:00;;;;;;;6.10;2.63;;;307.40;2304.00;;;;;;5049779;28;20103;-55
2022/05/11 01:56:26;;;;;;;4.95;2.90;;;307.20;2304.00;;;;;;5050250;28;20067;-54
2022/05/11 01:58:53;;;;;;;4.00;2.75;;;307.20;2304.00;;;;;;5050110;28;20025;-54
2022/05/11 02:01:23;;;;;;;5.47;2.58;;;307.20;2304.00;;;;;;5050337;28;20521;-55
2022/05/11 02:03:48;;;;;;;3.58;2.47;;;282.50;2278.40;;;;;;5050021;28;20052;-54
2022/05/11 02:08:58;;;;;;;4.05;2.35;;;282.40;2278.40;;;;;;5049838;28;20071;-54
2022/05/11 02:11:24;;;;;;;5.95;2.67;;;282.20;2278.40;;;;;;5050215;28;20075;-54
2022/05/11 02:13:50;;;;;;;5.88;2.92;;;282.30;2278.40;;;;;;5049778;28;20032;-54
2022/05/11 02:16:16;;;;;;;4.95;2.63;;;282.40;2278.40;;;;;;5050086;28;20036;-54
2022/05/11 02:18:42;;;;;;;5.18;2.92;;;282.50;2278.40;;;;;;5049440;28;20013;-54
2022/05/11 02:21:08;;;;;;;4.70;2.40;;;282.50;2278.40;;;;;;5050030;28;20036;-54
2022/05/11 02:23:35;;;;;;;4.22;2.38;;;307.20;2304.00;;;;;;5049653;28;20033;-54
2022/05/11 02:26:01;;;;;;;5.32;3.40;;;282.50;2278.40;;;;;;5049815;28;20115;-54
2022/05/11 02:28:27;;;;;;;5.75;2.80;;;307.20;2304.00;;;;;;5049765;28;20104;-54
2022/05/11 02:30:56;;;;;;;3.53;2.42;;;307.20;2304.00;;;;;;5049875;28;20022;-54
2022/05/11 02:33:23;;;;;;;5.10;2.47;;;307.20;2304.00;;;;;;5053465;28;20029;-54
2022/05/11 02:35:49;;;;;;;3.83;2.28;;;307.20;2304.00;;;;;;5053407;28;20028;-54
2022/05/11 02:38:24;;;;;;;4.18;2.53;;;307.20;2304.00;;;;;;5053187;28;20052;-53
2022/05/11 02:40:51;;;;;;;6.22;2.85;;;307.30;2304.00;;;;;;5053357;28;20029;-54
2022/05/11 02:43:17;;;;;;;4.82;2.63;;;307.20;2304.00;;;;;;5053140;28;20537;-54
2022/05/11 02:45:44;;;;;;;6.28;3.00;;;307.20;2304.00;;;;;;5052979;28;20382;-53
2022/05/11 02:48:13;;;;;;;5.30;2.65;;;307.20;2304.00;;;;;;5052912;28;20075;-54
2022/05/11 02:50:47;;;;;;;3.45;2.25;;;307.20;2304.00;;;;;;5053075;28;20477;-54
2022/05/11 02:53:14;;;;;;;4.47;2.63;;;307.20;2304.00;;;;;;5052794;28;20025;-54
2022/05/11 02:55:44;;;;;;;4.97;2.50;;;307.20;2304.00;;;;;;5053084;28;20075;-55
2022/05/11 02:58:12;;;;;;;5.63;2.97;;;282.50;2278.40;;;;;;5052873;28;20086;-55
2022/05/11 03:00:39;;;;;;;5.63;2.70;;;282.50;2278.40;;;;;;5053260;28;20017;-54
2022/05/11 03:03:06;;;;;;;3.95;2.20;;;282.50;2278.40;;;;;;5052795;28;20040;-54
2022/05/11 03:05:33;;;;;;;4.43;2.88;;;282.50;2278.40;;;;;;5052629;28;20066;-55
2022/05/11 03:07:59;;;;;;;4.35;2.63;;;282.40;2278.40;;;;;;5052702;28;20494;-53
2022/05/11 03:10:25;;;;;;;3.60;2.38;;;282.50;2278.40;;;;;;5052892;28;20025;-53
2022/05/11 03:12:51;;;;;;;6.15;2.75;;;282.50;2278.40;;;;;;5052501;28;20028;-54
2022/05/11 03:15:16;;;;;;;7.07;2.72;;;282.50;2278.40;;;;;;5052770;28;20132;-54
2022/05/11 03:17:42;;;;;;;5.30;2.40;;;282.30;2278.40;;;;;;5052499;28;20057;-54
2022/05/11 03:20:09;;;;;;;4.32;3.08;;;282.30;2278.40;;;;;;5052733;28;20025;-54
2022/05/11 03:22:36;;;;;;;6.45;2.80;;;282.20;2278.40;;;;;;5052576;28;20033;-54
2022/05/11 03:25:03;;;;;;;4.97;2.97;;;282.30;2278.40;;;;;;5052282;28;20021;-54
2022/05/11 03:27:29;;;;;;;4.13;2.35;;;282.30;2278.40;;;;;;5052683;28;20029;-54
2022/05/11 03:29:54;;;;;;;4.00;2.70;;;282.50;2278.40;;;;;;5052507;28;20021;-56
2022/05/11 03:35:08;;;;;;;4.60;2.63;;;282.50;2278.40;;;;;;5052527;28;20098;-55
2022/05/11 03:37:34;;;;;;;5.80;3.47;;;282.50;2278.40;;;;;;5052036;28;20051;-54
2022/05/11 03:40:01;;;;;;;4.82;2.97;;;282.50;2278.40;;;;;;5051968;28;20029;-54
2022/05/11 03:42:31;;;;;;;6.03;2.72;;;282.50;2278.40;;;;;;5051814;28;20475;-54
2022/05/11 03:45:16;;;;;;;5.30;3.25;;;307.20;2304.00;;;;;;5051943;28;20562;-57
2022/05/11 03:47:42;;;;;;;4.25;2.47;;;307.30;2304.00;;;;;;5051786;28;20075;-57
2022/05/11 03:50:09;;;;;;;3.88;3.05;;;307.40;2304.00;;;;;;5051948;28;20541;-57
2022/05/11 03:52:35;;;;;;;5.00;3.10;;;307.40;2304.00;;;;;;5052136;28;20501;-57
2022/05/11 03:55:02;;;;;;;5.82;3.22;;;307.50;2304.00;;;;;;5051774;28;20029;-57
2022/05/11 03:57:28;;;;;;;5.97;3.05;;;307.50;2304.00;;;;;;5051920;28;20029;-57
2022/05/11 03:59:54;;;;;;;10.15;2.60;;;307.50;2304.00;;;;;;5052375;28;20032;-57
2022/05/11 04:02:19;;;;;;;3.15;2.15;;;307.70;2304.00;;;;;;5051448;28;20068;-55
2022/05/11 04:04:45;;;;;;;4.57;2.72;;;307.80;2304.00;;;;;;5051891;28;20044;-57
2022/05/11 04:07:11;;;;;;;5.00;3.25;;;307.80;2304.00;;;;;;5051455;28;20025;-57
2022/05/11 04:09:36;;;;;;;6.07;3.20;;;308.00;2304.00;;;;;;5051599;28;20494;-58
2022/05/11 04:12:02;;;;;;;5.15;3.22;;;308.10;2304.00;;;;;;5051655;28;20063;-57
2022/05/11 04:14:28;;;;;;;4.82;2.30;;;308.10;2304.00;;;;;;5051783;28;20052;-57
2022/05/11 04:16:57;;;;;;;3.42;2.20;;;332.80;2329.60;;;;;;5051420;28;20025;-59
2022/05/11 04:19:22;;;;;;;6.10;2.88;;;332.90;2329.60;;;;;;5051133;28;20095;-58
2022/05/11 04:21:48;;;;;;;5.47;2.63;;;332.90;2329.60;;;;;;5051395;28;20033;-58
2022/05/11 04:24:14;;;;;;;4.80;2.80;;;332.90;2329.60;;;;;;5051362;28;20032;-58
2022/05/11 04:26:39;;;;;;;5.97;2.80;;;333.00;2329.60;;;;;;5051104;28;20471;-57
2022/05/11 04:29:05;;;;;;;6.32;3.03;;;333.20;2329.60;;;;;;5051416;28;20055;-59
2022/05/11 04:31:31;;;;;;;4.30;2.50;;;333.20;2329.60;;;;;;5051073;28;20519;-58
2022/05/11 04:33:57;;;;;;;5.60;2.55;;;333.30;2329.60;;;;;;5051399;28;20025;-58
2022/05/11 04:36:22;;;;;;;4.22;2.65;;;333.50;2329.60;;;;;;5050828;28;20356;-58
2022/05/11 04:38:48;;;;;;;3.50;2.47;;;333.50;2329.60;;;;;;5050866;28;20049;-58
2022/05/11 04:41:14;;;;;;;3.85;2.38;;;333.40;2329.60;;;;;;5050775;28;20036;-58
2022/05/11 04:43:39;;;;;;;3.97;2.58;;;333.40;2329.60;;;;;;5050695;28;20041;-56
2022/05/11 04:46:05;;;;;;;3.85;2.33;;;333.40;2329.60;;;;;;5051299;28;20021;-58
2022/05/11 04:48:31;;;;;;;4.45;2.65;;;333.70;2329.60;;;;;;5050617;28;20052;-57
2022/05/11 04:51:01;;;;;;;4.53;2.83;;;384.00;2329.60;;;;;;5051125;28;20025;-57
2022/05/11 04:53:28;;;;;;;4.78;2.97;;;487.30;2380.80;;;;;;5050088;28;20090;-55
2022/05/11 04:55:54;;;;;;;4.47;3.17;;;589.00;1868.80;;;;;;5050439;28;20060;-58
2022/05/11 04:58:20;;;;;;;5.95;3.45;;;640.40;1612.80;;;;;;5050862;28;20371;-57
2022/05/11 05:00:46;;;;;;;4.75;3.10;;;666.40;1510.40;;;;;;5050639;28;20025;-58
2022/05/11 05:03:13;;;;;;;4.63;3.15;;;716.90;1408.00;;;;;;5050499;28;20106;-56
2022/05/11 05:05:39;;;;;;;3.75;3.28;;;742.50;1356.80;;;;;;5050531;28;20083;-59
2022/05/11 05:08:06;;;;;;;4.03;3.60;;;743.30;1280.00;;;;;;5050654;28;20493;-59
2022/05/11 05:10:33;;;;;;;5.10;3.42;;;743.30;1254.40;;;;;;5050532;28;20023;-58
2022/05/11 05:13:06;;;;;;;4.03;3.63;;;768.20;1254.40;;;;;;5051067;28;20029;-57
2022/05/11 05:15:35;;;;;;;4.53;3.92;;;768.70;1203.20;;;;;;5050292;28;20419;-59
2022/05/11 05:18:01;;;;;;;3.88;3.58;;;794.50;1177.60;;;;;;5050525;28;20033;-57
2022/05/11 05:20:27;;;;;;;4.30;3.90;;;793.70;1203.20;;;;;;5050523;28;20040;-57
2022/05/11 05:22:53;;;;;;;4.45;3.38;;;819.30;1177.60;;;;;;5050350;28;20029;-59
2022/05/11 05:25:19;;;;;;;4.10;3.70;;;794.50;1177.60;;;;;;5050120;28;20035;-56
2022/05/11 05:27:45;;;;;;;4.47;3.88;;;819.80;1126.40;;;;;;5050480;28;20044;-58
2022/05/11 05:32:55;;;;;;;5.00;4.53;;;794.00;1203.20;;;;;;5050226;28;20433;-59
2022/05/11 05:35:21;;;;;;;5.47;4.93;;;794.20;1203.20;;;;;;5050263;28;20025;-58
2022/05/11 05:37:47;;;;;;;5.35;4.85;;;794.40;1177.60;;;;;;5049738;28;20060;-58
2022/05/11 05:40:14;;;;;;;5.28;4.50;;;819.30;1177.60;;;;;;5049971;28;20379;-65
2022/05/11 05:42:40;;;;;;;4.88;4.47;;;845.10;1152.00;;;;;;5050045;28;20037;-63
2022/05/11 05:45:07;;;;;;;6.43;5.93;;;845.50;1126.40;;;;;;5050055;28;20017;-62
2022/05/11 05:47:33;;;;;;;5.82;5.40;;;870.80;1075.20;;;;;;5049757;28;20021;-61
2022/05/11 05:49:59;;;;;;;6.15;5.65;;;896.90;1024.00;;;;;;5049881;28;20508;-63
2022/05/11 05:52:25;;;;;;;6.43;5.90;;;922.00;1024.00;;;;;;5050113;28;20025;-64
2022/05/11 05:54:54;;;;;;;5.78;5.38;;;947.70;972.80;;;;;;5050138;28;20025;-64
2022/05/11 05:57:20;;;;;;;5.95;5.45;;;947.90;947.20;;;;;;5049701;28;20091;-64
2022/05/11 05:59:46;;;;;;;6.63;6.13;;;973.70;947.20;;;;;;5049941;28;20044;-64
2022/05/11 06:02:16;;;;;;;6.30;5.80;;;998.90;947.20;;;;;;5049672;28;20029;-64
2022/05/11 06:04:43;;;;;;;6.90;6.40;;;1024.90;896.00;;;;;;5050081;28;20086;-64
2022/05/11 06:07:11;;;;;;;6.72;6.22;;;1049.70;921.60;;;;;;5054076;28;20442;-63
2022/05/11 06:09:38;;;;;;;7.43;6.93;;;1049.60;921.60;;;;;;5053917;28;20479;-62
2022/05/11 06:12:08;;;;;;;6.75;6.25;;;1050.00;896.00;;;;;;5053649;28;20544;-63
2022/05/11 06:14:34;;;;;;;7.10;6.50;;;1049.90;896.00;;;;;;5053622;28;20033;-64
2022/05/11 06:17:01;;;;;;;7.90;7.32;;;1050.50;870.40;;;;;;5053600;28;20029;-64
2022/05/11 06:19:28;;;;;;;7.40;6.90;;;1075.80;844.80;;;;;;5054052;28;20040;-65
2022/05/11 06:21:54;;;;;;;7.68;7.18;;;1100.90;870.40;;;;;;5053641;28;20476;-65
2022/05/11 06:24:19;;;;;;;7.85;7.35;;;1101.30;844.80;;;;;;5053433;28;20049;-65
2022/05/11 06:26:46;;;;;;;7.82;7.28;;;1126.60;844.80;;;;;;5053928;28;20033;-64
2022/05/11 06:29:12;;;;;;;8.43;7.88;;;1127.30;819.20;;;;;;5053524;28;20020;-65
2022/05/11 06:31:38;;;;;;;9.48;8.88;;;1101.70;819.20;;;;;;5053688;28;20025;-63
2022/05/11 06:34:04;;;;;;;8.30;7.70;;;1101.60;819.20;;;;;;5053376;28;20493;-65
2022/05/11 06:36:29;;;;;;;8.75;8.10;;;1101.40;819.20;;;;;;5053120;28;20045;-65
2022/05/11 06:38:56;;;;;;;8.63;8.13;;;1126.60;819.20;;;;;;5053614;28;20108;-65
2022/05/11 06:41:27;;;;;;;8.40;7.85;;;1127.30;793.60;;;;;;5053412;28;20029;-65
2022/05/11 06:43:54;;;;;;;8.18;7.68;;;1101.70;793.60;;;;;;5052960;28;20033;-64
2022/05/11 06:46:21;;;;;;;8.95;8.35;;;1152.20;768.00;;;;;;5053007;28;20029;-65
2022/05/11 06:48:48;;;;;;;8.48;7.95;;;1050.50;870.40;;;;;;5053382;28;20025;-65
2022/05/11 06:51:16;;;;;;;8.05;7.45;;;999.30;896.00;;;;;;5052762;28;20537;-64
2022/05/11 06:59:20;;;;;;;8.32;7.72;;;1049.80;844.80;;;;;;5052934;28;20040;-65
2022/05/11 07:01:50;;;;;;;8.68;7.97;;;1101.00;819.20;;;;;;5053042;28;20039;-64
2022/05/11 07:04:15;;;;;;;9.85;9.15;;;1126.40;793.60;;;;;;5052527;28;20059;-64
2022/05/11 07:06:41;;;;;;;9.32;8.73;;;1101.60;793.60;;;;;;5052188;28;20029;-65
2022/05/11 07:09:07;;;;;;;8.50;8.00;;;1127.10;768.00;;;;;;5052632;28;20036;-64
2022/05/11 07:14:18;;;;;;;9.85;9.15;;;1101.70;793.60;;;;;;5053128;28;20071;-64
2022/05/11 07:16:43;;;;;;;11.10;10.30;;;1152.50;768.00;;;;;;5051745;28;20530;-64
2022/05/11 07:19:09;;;;;;;10.20;9.50;;;1177.60;742.40;;;;;;5052741;28;20090;-64
2022/05/11 07:21:35;;;;;;;9.60;8.90;;;1178.50;691.20;;;;;;5052823;28;20033;-64
2022/05/11 07:24:01;;;;;;;9.75;9.07;;;1178.00;716.80;;;;;;5052145;28;20479;-64
2022/05/11 07:26:27;;;;;;;10.30;9.60;;;1178.50;691.20;;;;;;5052500;28;20029;-64
2022/05/11 07:28:53;;;;;;;10.50;9.80;;;1203.20;716.80;;;;;;5052608;28;20025;-65
2022/05/11 07:31:18;;;;;;;9.80;9.20;;;1178.20;716.80;;;;;;5052451;28;20489;-64
2022/05/11 07:33:44;;;;;;;9.57;8.98;;;1178.50;691.20;;;;;;5052069;28;20518;-65
2022/05/11 07:36:10;;;;;;;10.27;9.57;;;1203.70;691.20;;;;;;5051724;28;20037;-64
2022/05/11 07:38:38;;;;;;;10.90;10.20;;;1203.90;665.60;;;;;;5052091;28;20053;-65
2022/05/11 07:41:05;;;;;;;11.55;10.27;;;1152.60;716.80;;;;;;5051994;28;20027;-65
2022/05/11 07:43:31;;;;;;;10.15;9.35;;;1178.20;716.80;;;;;;5051697;28;20037;-64
2022/05/11 07:45:57;;;;;;;9.43;8.82;;;1178.00;691.20;;;;;;5052315;28;20021;-65
2022/05/11 07:48:23;;;;;;;8.57;8.07;;;1126.70;716.80;;;;;;5051928;28;20481;-65
2022/05/11 07:50:49;;;;;;;8.75;8.25;;;1126.60;742.40;;;;;;5052251;28;20029;-64
2022/05/11 07:53:15;;;;;;;9.23;8.63;;;1076.10;768.00;;;;;;5052385;28;20390;-64
2022/05/11 07:55:41;;;;;;;9.05;8.55;;;1152.40;742.40;;;;;;5052148;28;20025;-65
2022/05/11 08:00:55;;;;;;;9.23;8.68;;;1178.20;665.60;;;;;;5052135;28;20137;-65
2022/05/11 08:03:20;;;;;;;9.07;8.57;;;1152.60;716.80;;;;;;5051644;28;20029;-65
2022/05/11 08:05:46;;;;;;;24.60;14.80;;;1178.10;665.60;;;;;;5051944;28;20025;-64
2022/05/11 08:08:12;;;;;;;9.40;8.80;;;1178.00;665.60;;;;;;5050520;28;20487;-64
2022/05/11 08:10:40;;;;;;;8.73;8.13;;;1178.00;665.60;;;;;;5052021;28;20445;-64
2022/05/11 08:13:07;;;;;;;9.48;8.88;;;1178.20;691.20;;;;;;5052073;28;20386;-64
2022/05/11 08:15:36;;;;;;;12.13;10.05;;;1152.70;716.80;;;;;;5051411;28;20029;-64
2022/05/11 08:18:04;;;;;;;17.23;12.52;;;1152.10;742.40;;;;;;5051371;28;20025;-64
2022/05/11 08:20:34;;;;;;;9.85;9.00;;;1101.50;742.40;;;;;;5051432;28;20429;-64
2022/05/11 08:23:02;;;;;;;6.30;5.90;;;1050.20;768.00;;;;;;5051188;28;20045;-63
2022/05/11 08:25:29;;;;;;;5.35;4.95;;;948.10;819.20;;;;;;5051429;28;20025;-64
2022/05/11 08:27:56;;;;;;;5.50;4.72;;;896.90;896.00;;;;;;5051671;28;20382;-64
2022/05/11 08:33:26;;;;;;;3.92;3.50;;;870.70;947.20;;;;;;5051282;28;20031;-63
2022/05/11 08:36:07;;;;;;;4.30;3.65;;;845.40;998.40;;;;;;5051164;28;20455;-64
2022/05/11 08:38:37;;;;;;;12.60;6.40;;;820.10;972.80;;;;;;5050715;28;20060;-63
2022/05/11 08:41:18;;;;;;;4.72;3.78;;;819.30;1049.60;;;;;;5050721;28;20021;-62
2022/05/11 08:43:45;;;;;;;3.72;3.13;;;794.40;1049.60;;;;;;5050948;28;20117;-62
2022/05/11 08:46:25;;;;;;;4.07;3.03;;;793.90;1075.20;;;;;;5050793;28;20028;-63
2022/05/11 08:49:00;;;;;;;3.47;3.15;;;793.70;1126.40;;;;;;5050762;28;20101;-63
2022/05/11 08:51:34;;;;;;;3.20;2.80;;;768.20;1075.20;;;;;;5051009;28;20017;-62
2022/05/11 08:54:15;;;;;;;3.97;3.42;;;768.40;1100.80;;;;;;5050674;28;20040;-63
2022/05/11 08:56:43;;;;;;;4.38;3.55;;;743.30;1152.00;;;;;;5050656;28;20115;-63
2022/05/11 08:59:21;;;;;;;4.40;3.50;;;768.00;1126.40;;;;;;5051064;28;20025;-62
2022/05/11 09:01:59;;;;;;;3.70;3.15;;;768.10;1100.80;;;;;;5050634;28;20053;-62
2022/05/11 09:04:43;;;;;;;4.88;3.17;;;768.10;1075.20;;;;;;5050688;28;20087;-62
2022/05/11 09:07:09;;;;;;;4.70;3.20;;;768.00;1152.00;;;;;;5050648;28;20025;-62
2022/05/11 09:09:37;;;;;;;3.90;2.97;;;743.30;1126.40;;;;;;5050712;28;20059;-62
2022/05/11 09:12:03;;;;;;;3.75;3.10;;;743.20;1126.40;;;;;;5050307;28;20483;-62
2022/05/11 09:14:54;;;;;;;5.32;3.60;;;742.40;1152.00;;;;;;5050515;28;20067;-62
2022/05/11 09:17:29;;;;;;;5.13;3.80;;;717.00;1152.00;;;;;;5050288;28;20052;-63
2022/05/11 09:20:17;;;;;;;5.07;3.42;;;717.60;1126.40;;;;;;5050810;28;20025;-62
2022/05/11 09:23:02;;;;;;;3.70;3.17;;;717.40;1126.40;;;;;;5047988;28;20036;-62
2022/05/11 09:25:36;;;;;;;6.32;3.20;;;717.20;1152.00;;;;;;5048204;28;20037;-62
2022/05/11 09:28:25;;;;;;;4.10;3.40;;;717.40;1152.00;;;;;;5047916;28;20487;-62
2022/05/11 09:31:09;;;;;;;4.30;3.55;;;717.00;1152.00;;;;;;5047920;28;20060;-63
2022/05/11 09:33:40;;;;;;;4.03;3.33;;;717.40;1152.00;;;;;;5048152;28;20232;-62
2022/05/11 09:36:09;;;;;;;4.82;3.33;;;717.10;1152.00;;;;;;5047904;28;20037;-62
2022/05/11 09:38:42;;;;;;;4.25;3.13;;;716.80;1177.60;;;;;;5047747;28;20063;-62
2022/05/11 09:41:28;;;;;;;5.10;3.38;;;691.90;1177.60;;;;;;5047736;28;20121;-62
2022/05/11 09:43:58;;;;;;;8.48;3.47;;;716.80;1203.20;;;;;;5047701;28;20126;-62
2022/05/11 09:46:26;;;;;;;5.68;3.60;;;691.90;1126.40;;;;;;5047736;28;20056;-62
2022/05/11 09:49:04;;;;;;;3.97;3.05;;;691.80;1152.00;;;;;;5047771;28;20025;-63
2022/05/11 09:51:39;;;;;;;4.45;3.10;;;692.10;1152.00;;;;;;5047610;28;20040;-61
2022/05/11 09:54:27;;;;;;;4.55;2.92;;;717.10;1177.60;;;;;;5047758;28;20103;-63
2022/05/11 09:57:16;;;;;;;5.50;3.33;;;717.00;1152.00;;;;;;5047784;28;20391;-63
2022/05/11 09:59:49;;;;;;;3.67;3.00;;;717.10;1203.20;;;;;;5035023;28;20052;-63
2022/05/11 10:02:15;;;;;;;;;;;691.90;1177.60;;;;;;5050580;28;20044;-62
2022/05/11 10:05:01;;;;;;;4.03;2.78;;;691.70;1177.60;;;;;;5050006;28;19916;-63
2022/05/11 10:07:30;;;;;;;4.20;2.90;;;691.40;1177.60;;;;;;5049740;28;20598;-63
2022/05/11 10:10:06;;;;;;;3.65;2.63;;;691.90;1126.40;;;;;;5049972;28;20040;-62
2022/05/11 10:12:37;;;;;;;3.90;2.78;;;692.10;1126.40;;;;;;5049947;28;20096;-62
2022/05/11 10:24:21;;;;;;;5.60;3.13;;;692.10;1126.40;;;;;;5049749;28;20095;-62
2022/05/11 10:26:57;;;;;;;3.60;2.50;;;692.10;1075.20;;;;;;5049783;28;20039;-62
2022/05/11 10:29:44;;;;;;;5.05;2.72;;;692.10;1177.60;;;;;;5049623;28;20021;-62
2022/05/11 10:32:48;;;;;;;3.35;2.53;;;692.10;1126.40;;;;;;5049757;28;20025;-62
2022/05/11 10:35:29;;;;;;;4.18;2.85;;;716.90;1152.00;;;;;;5049370;28;20029;-63
2022/05/11 10:38:17;;;;;;;3.65;2.53;;;716.80;1152.00;;;;;;5049419;28;20407;-62
2022/05/11 10:41:11;;;;;;;4.90;2.70;;;716.90;1100.80;;;;;;5049375;28;20025;-62
2022/05/11 10:44:06;;;;;;;;;;;716.90;1203.20;;;;;;5049947;28;20068;-63
2022/05/11 10:46:34;;;;;;;3.05;2.30;;;717.00;1152.00;;;;;;5047282;28;19905;-62
2022/05/11 10:49:11;;;;;;;3.80;3.00;;;692.00;1100.80;;;;;;5047332;28;20104;-63
2022/05/11 10:51:57;;;;;;;3.78;2.83;;;691.80;1177.60;;;;;;5047329;28;20560;-62
2022/05/11 10:54:50;;;;;;;3.55;2.80;;;691.20;1177.60;;;;;;5050894;28;20052;-62
2022/05/11 10:58:07;;;;;;;3.97;3.00;;;691.20;1177.60;;;;;;5051010;28;20037;-61
2022/05/11 11:00:47;;;;;;;3.72;2.70;;;666.50;1177.60;;;;;;4991369;28;20030;-62
2022/05/11 11:03:34;;;;;;;3.05;2.60;;;666.20;1203.20;;;;;;5043872;28;20124;-63
2022/05/11 11:09:14;;;;;;;3.85;2.70;;;666.10;1254.40;;;;;;5050971;28;20035;-62
2022/05/11 11:11:57;;;;;;;3.95;2.95;;;691.20;1203.20;;;;;;5050732;28;20051;-62
2022/05/11 11:14:36;;;;;;;3.67;2.63;;;691.40;1177.60;;;;;;5050263;28;20128;-62
2022/05/11 11:17:05;;;;;;;3.33;2.60;;;691.60;1203.20;;;;;;5050330;28;20033;-62
2022/05/11 11:19:33;;;;;;;3.45;2.33;;;691.70;1126.40;;;;;;5050075;28;20108;-62
2022/05/11 11:22:01;;;;;;;3.20;2.20;;;691.50;1100.80;;;;;;5050431;28;20135;-62
2022/05/11 11:24:28;;;;;;;3.17;2.50;;;691.70;1126.40;;;;;;5052749;28;20044;-62
2022/05/11 11:27:00;;;;;;;3.55;2.67;;;691.80;1152.00;;;;;;5052771;28;20021;-62
2022/05/11 11:30:07;;;;;;;4.50;2.70;;;691.80;1126.40;;;;;;5052485;28;20059;-62
2022/05/11 11:32:32;;;;;;;3.38;2.63;;;691.60;1177.60;;;;;;5049928;28;20127;-63
2022/05/11 11:35:22;;;;;;;3.75;2.97;;;691.90;1177.60;;;;;;5050164;28;20114;-62
2022/05/11 11:38:00;;;;;;;3.45;2.72;;;692.10;1152.00;;;;;;5049747;28;20041;-62
2022/05/11 11:40:29;;;;;;;4.75;2.72;;;691.90;1152.00;;;;;;5049923;28;20029;-62
2022/05/11 11:42:55;;;;;;;3.63;2.70;;;691.80;1152.00;;;;;;5050026;28;20052;-62
2022/05/11 11:45:28;;;;;;;3.88;3.05;;;691.60;1126.40;;;;;;5049862;28;20040;-62
2022/05/11 11:48:16;;;;;;;3.53;2.80;;;691.60;1152.00;;;;;;5049842;28;20029;-61
2022/05/11 11:50:58;;;;;;;3.65;2.50;;;691.40;1228.80;;;;;;5049650;28;20306;-62
2022/05/11 11:53:33;;;;;;;3.50;2.72;;;691.60;1203.20;;;;;;5049624;28;20040;-61
2022/05/11 11:56:25;;;;;;;4.40;2.88;;;691.80;1177.60;;;;;;5049843;28;20033;-62
2022/05/11 11:59:11;;;;;;;3.63;2.70;;;691.60;1177.60;;;;;;4970969;28;20540;-61
2022/05/11 12:01:46;;;;;;;4.38;3.05;;;691.60;1177.60;;;;;;4970926;28;20034;-61
2022/05/11 12:04:22;;;;;;;3.92;2.83;;;692.10;1177.60;;;;;;4970360;28;20078;-60
2022/05/11 12:15:22;;;;;;;4.13;2.65;;;717.00;1100.80;;;;;;4990437;28;20029;-62
2022/05/11 12:17:48;;;;;;;4.03;2.38;;;716.80;1152.00;;;;;;4990139;28;20033;-63
2022/05/11 12:20:20;;;;;;;2.85;2.00;;;717.20;1152.00;;;;;;4989771;28;20101;-61
2022/05/11 12:22:51;;;;;;;2.95;2.45;;;717.20;1152.00;;;;;;4989783;28;20057;-63
2022/05/11 12:25:30;;;;;;;3.65;2.90;;;692.10;1126.40;;;;;;4989984;28;20412;-62
2022/05/11 12:27:59;;;;;;;4.22;2.88;;;717.10;1203.20;;;;;;4989800;28;20118;-62
2022/05/11 12:30:32;;;;;;;3.38;2.75;;;717.10;1152.00;;;;;;4989718;28;20030;-63
2022/05/11 12:33:03;;;;;;;5.15;3.25;;;716.90;1152.00;;;;;;4989752;28;20030;-62
2022/05/11 12:35:37;;;;;;;3.00;2.42;;;716.80;1152.00;;;;;;5011729;28;20540;-61
2022/05/11 12:38:07;;;;;;;3.50;2.65;;;716.90;1152.00;;;;;;5050841;28;20060;-61
2022/05/11 12:40:48;;;;;;;4.43;2.60;;;691.90;1126.40;;;;;;5051058;28;20017;-61
2022/05/11 12:43:32;;;;;;;3.20;2.50;;;716.90;1152.00;;;;;;5050709;28;20044;-63
2022/05/11 12:46:01;;;;;;;4.32;2.63;;;717.20;1152.00;;;;;;5051134;28;20025;-61
2022/05/11 12:48:35;;;;;;;3.75;3.22;;;717.30;1152.00;;;;;;5050897;28;20067;-61
2022/05/11 12:51:15;;;;;;;3.67;2.85;;;717.40;1126.40;;;;;;5050523;28;20025;-61
2022/05/11 12:53:58;;;;;;;5.20;3.20;;;717.30;1152.00;;;;;;5050824;28;20041;-61
2022/05/11 12:56:31;;;;;;;4.65;3.35;;;717.40;1177.60;;;;;;5050652;28;20029;-63
2022/05/11 12:59:06;;;;;;;5.13;3.65;;;717.40;1152.00;;;;;;5050666;28;20029;-61
2022/05/11 13:01:33;;;;;;;3.17;2.50;;;717.40;1075.20;;;;;;5050385;28;20096;-62
2022/05/11 13:04:24;;;;;;;5.72;3.20;;;717.30;1100.80;;;;;;5050069;28;20040;-62
2022/05/11 13:06:55;;;;;;;4.10;3.42;;;717.40;1152.00;;;;;;5050171;28;20037;-61
2022/05/11 13:09:31;;;;;;;4.10;3.38;;;717.50;1152.00;;;;;;5050035;28;20032;-62
2022/05/11 13:11:58;;;;;;;5.80;3.08;;;717.40;1177.60;;;;;;5050338;28;20032;-61
2022/05/11 13:14:32;;;;;;;6.72;4.15;;;717.10;1126.40;;;;;;5049970;28;20435;-63
2022/05/11 13:17:02;;;;;;;4.53;3.70;;;717.20;1203.20;;;;;;5050194;28;20021;-61
2022/05/11 13:19:35;;;;;;;4.10;3.22;;;717.30;1203.20;;;;;;5050230;28;20040;-63
2022/05/11 13:22:09;;;;;;;3.95;3.28;;;717.30;1152.00;;;;;;5050168;28;20035;-63